createdAt,value
2017-12-21T05:59:16.298Z,7.50
2017-12-21T06:01:43.900Z,7.87
2017-12-21T06:04:12.165Z,7.55
2017-12-21T06:06:40.482Z,7.22
2017-12-21T06:09:07.988Z,6.95
2017-12-21T06:11:35.498Z,6.85
2017-12-21T06:14:02.992Z,6.33
2017-12-21T06:16:30.496Z,6.78
2017-12-21T06:18:58.792Z,5.80
2017-12-21T06:21:26.291Z,5.35
2017-12-21T06:23:53.792Z,5.90
2017-12-21T06:26:22.046Z,6.57
2017-12-21T06:28:49.591Z,6.10
2017-12-21T06:31:17.095Z,5.90
2017-12-21T06:33:44.612Z,6.80
2017-12-21T06:36:12.128Z,6.78
2017-12-21T06:38:39.615Z,6.93
2017-12-21T06:41:07.120Z,6.45
2017-12-21T06:43:35.392Z,6.50
2017-12-21T06:46:03.691Z,6.50
2017-12-21T06:48:31.204Z,6.13
2017-12-21T06:50:58.707Z,6.87
2017-12-21T06:53:26.307Z,5.47
2017-12-21T06:55:53.878Z,6.23
2017-12-21T06:58:21.376Z,5.55
2017-12-21T07:00:49.646Z,6.30
2017-12-21T07:03:17.926Z,6.53
2017-12-21T07:05:46.204Z,7.60
2017-12-21T07:08:15.502Z,6.37
2017-12-21T07:10:43.779Z,6.83
2017-12-21T07:13:12.161Z,6.53
2017-12-21T07:15:39.689Z,7.60
2017-12-21T07:18:07.207Z,7.22
2017-12-21T07:20:34.716Z,6.50
2017-12-21T07:23:02.202Z,6.40
2017-12-21T07:25:29.711Z,8.38
2017-12-21T07:27:57.421Z,7.23
2017-12-21T07:30:24.941Z,8.52
2017-12-21T07:32:52.460Z,8.98
2017-12-21T07:35:19.989Z,8.57
2017-12-21T07:37:48.279Z,8.05
2017-12-21T07:40:15.819Z,8.60
2017-12-21T07:42:43.370Z,10.23
2017-12-21T07:45:10.888Z,8.48
2017-12-21T07:47:38.419Z,10.63
2017-12-21T07:50:05.981Z,10.75
2017-12-21T07:52:33.659Z,12.40
2017-12-21T07:55:01.924Z,14.02
2017-12-21T07:57:29.424Z,13.50
2017-12-21T07:59:56.942Z,14.73
2017-12-21T08:02:24.455Z,15.80
2017-12-21T08:04:52.899Z,15.20
2017-12-21T08:07:20.420Z,11.90
2017-12-21T08:09:48.023Z,9.70
2017-12-21T08:12:15.514Z,9.63
2017-12-21T08:14:43.799Z,11.63
2017-12-21T08:17:11.329Z,11.40
2017-12-21T08:19:38.853Z,12.40
2017-12-21T08:22:06.369Z,19.33
2017-12-21T08:24:33.863Z,20.35
2017-12-21T08:27:01.425Z,23.25
2017-12-21T08:29:28.964Z,19.92
2017-12-21T08:31:56.502Z,23.12
2017-12-21T08:34:23.991Z,23.73
2017-12-21T08:36:51.497Z,20.33
2017-12-21T08:39:19.012Z,25.83
2017-12-21T08:41:47.284Z,21.83
2017-12-21T08:44:15.565Z,20.97
2017-12-21T08:46:44.542Z,22.50
2017-12-21T08:49:12.068Z,21.10
2017-12-21T08:51:39.580Z,21.50
2017-12-21T08:54:07.849Z,17.87
2017-12-21T08:56:35.358Z,17.17
2017-12-21T08:59:02.923Z,17.33
2017-12-21T09:01:30.462Z,12.40
2017-12-21T09:03:57.973Z,12.52
2017-12-21T09:06:25.487Z,11.00
2017-12-21T09:08:54.162Z,9.55
2017-12-21T09:11:21.658Z,8.55
2017-12-21T09:13:49.157Z,8.55
2017-12-21T09:16:17.430Z,6.87
2017-12-21T09:18:44.960Z,8.00
2017-12-21T09:21:12.479Z,7.80
2017-12-21T09:23:39.998Z,7.70
2017-12-21T09:26:07.509Z,7.47
2017-12-21T09:28:35.019Z,7.60
2017-12-21T09:31:02.535Z,7.20
2017-12-21T09:33:30.034Z,7.27
2017-12-21T09:35:57.572Z,7.35
2017-12-21T09:38:25.098Z,7.18
2017-12-21T09:40:52.612Z,8.20
2017-12-21T09:43:20.097Z,8.10
2017-12-21T09:45:48.367Z,7.30
2017-12-21T09:48:16.667Z,8.38
2017-12-21T09:50:44.156Z,8.38
2017-12-21T09:53:11.667Z,8.18
2017-12-21T09:55:39.179Z,7.53
2017-12-21T09:58:06.677Z,7.35
2017-12-21T10:00:35.307Z,7.87
2017-12-21T10:03:02.812Z,6.75
2017-12-21T10:05:31.079Z,8.00
2017-12-21T10:07:58.568Z,7.72
2017-12-21T10:10:26.092Z,7.80
2017-12-21T10:12:53.582Z,7.80
2017-12-21T10:15:21.083Z,7.28
2017-12-21T10:17:48.725Z,8.52
2017-12-21T10:20:16.247Z,8.73
2017-12-21T10:22:44.542Z,8.02
2017-12-21T10:25:12.049Z,8.68
2017-12-21T10:27:39.555Z,8.70
2017-12-21T10:30:07.054Z,8.30
2017-12-21T10:32:34.567Z,7.97
2017-12-21T10:35:02.847Z,7.75
2017-12-21T10:37:31.141Z,8.13
2017-12-21T10:39:58.647Z,8.38
2017-12-21T10:42:26.155Z,8.65
2017-12-21T10:44:53.651Z,8.65
2017-12-21T10:47:21.196Z,8.93
2017-12-21T10:49:48.715Z,8.65
2017-12-21T10:52:16.279Z,8.30
2017-12-21T10:54:43.795Z,8.90
2017-12-21T10:57:11.279Z,8.63
2017-12-21T10:59:38.790Z,8.50
2017-12-21T11:02:06.337Z,8.57
2017-12-21T11:04:33.851Z,9.45
2017-12-21T11:07:01.378Z,9.18
2017-12-21T11:09:28.890Z,9.48
2017-12-21T11:11:57.219Z,9.30
2017-12-21T11:14:24.741Z,7.97
2017-12-21T11:16:53.054Z,8.90
2017-12-21T11:19:20.572Z,8.25
2017-12-21T11:21:48.847Z,8.55
2017-12-21T11:24:17.197Z,8.80
2017-12-21T11:26:44.736Z,8.30
2017-12-21T11:29:12.252Z,8.93
2017-12-21T11:31:40.529Z,9.05
2017-12-21T11:34:08.050Z,8.20
2017-12-21T11:36:35.552Z,9.15
2017-12-21T11:39:03.075Z,9.15
2017-12-21T11:41:30.571Z,8.68
2017-12-21T11:43:58.080Z,8.32
2017-12-21T11:46:25.593Z,9.00
2017-12-21T11:48:53.112Z,9.65
2017-12-21T11:51:20.626Z,10.35
2017-12-21T11:53:48.267Z,10.05
2017-12-21T11:56:15.801Z,10.07
2017-12-21T11:58:43.320Z,8.57
2017-12-21T12:01:10.864Z,9.65
2017-12-21T12:03:38.392Z,10.57
2017-12-21T12:06:05.908Z,9.38
2017-12-21T12:08:33.444Z,10.07
2017-12-21T12:11:00.948Z,9.60
2017-12-21T12:13:28.464Z,9.80
2017-12-21T12:15:56.000Z,10.45
2017-12-21T12:18:24.293Z,10.75
2017-12-21T12:20:51.791Z,9.68
2017-12-21T12:23:19.303Z,9.68
2017-12-21T12:25:46.846Z,10.33
2017-12-21T12:28:15.123Z,10.07
2017-12-21T12:30:43.405Z,10.50
2017-12-21T12:33:11.685Z,10.77
2017-12-21T12:35:39.993Z,10.00
2017-12-21T12:38:07.515Z,10.67
2017-12-21T12:40:35.061Z,11.50
2017-12-21T12:43:02.571Z,10.10
2017-12-21T12:45:30.118Z,10.10
2017-12-21T12:47:57.624Z,8.93
2017-12-21T12:50:25.155Z,12.00
2017-12-21T12:52:52.755Z,8.55
2017-12-21T12:55:20.362Z,9.93
2017-12-21T12:57:47.918Z,8.88
2017-12-21T13:00:15.428Z,8.98
2017-12-21T13:02:42.945Z,9.93
2017-12-21T13:05:10.542Z,10.48
2017-12-21T13:07:38.082Z,8.98
2017-12-21T13:10:05.612Z,8.27
2017-12-21T13:12:33.893Z,6.90
2017-12-21T13:15:01.395Z,8.00
2017-12-21T13:17:28.901Z,8.27
2017-12-21T13:19:56.419Z,8.65
2017-12-21T13:22:23.924Z,8.73
2017-12-21T13:24:51.435Z,8.45
2017-12-21T13:27:18.944Z,8.05
2017-12-21T13:29:46.460Z,8.70
2017-12-21T13:32:14.003Z,10.02
2017-12-21T13:34:41.491Z,9.65
2017-12-21T13:37:09.042Z,7.40
2017-12-21T13:39:36.538Z,8.80
2017-12-21T13:42:04.076Z,8.48
2017-12-21T13:44:32.343Z,8.23
2017-12-21T13:46:59.860Z,8.18
2017-12-21T13:49:27.399Z,9.90
2017-12-21T13:51:54.896Z,8.15
2017-12-21T13:54:22.406Z,9.25
2017-12-21T13:56:49.956Z,8.73
2017-12-21T13:59:18.221Z,8.75
2017-12-21T14:01:46.512Z,8.57
2017-12-21T14:04:14.807Z,8.93
2017-12-21T14:06:42.307Z,10.20
2017-12-21T14:09:09.807Z,7.93
2017-12-21T14:11:37.351Z,8.95
2017-12-21T14:14:05.638Z,8.93
2017-12-21T14:16:33.903Z,9.15
2017-12-21T14:19:02.235Z,10.20
2017-12-21T14:21:29.777Z,11.10
2017-12-21T14:23:57.319Z,10.00
2017-12-21T14:26:25.589Z,10.10
2017-12-21T14:28:53.867Z,9.77
2017-12-21T14:31:22.158Z,9.48
2017-12-21T14:33:49.702Z,9.32
2017-12-21T14:36:17.259Z,8.80
2017-12-21T14:38:45.531Z,8.80
2017-12-21T14:41:13.810Z,9.30
2017-12-21T14:43:42.102Z,8.82
2017-12-21T14:46:10.393Z,8.80
2017-12-21T14:48:37.949Z,7.97
2017-12-21T14:51:05.444Z,8.85
2017-12-21T14:53:32.956Z,8.32
2017-12-21T14:56:01.216Z,8.90
2017-12-21T14:58:29.670Z,9.55
2017-12-21T15:00:57.207Z,8.50
2017-12-21T15:03:24.708Z,9.48
2017-12-21T15:05:52.230Z,9.45
2017-12-21T15:08:19.735Z,8.32
2017-12-21T15:10:48.008Z,8.98
2017-12-21T15:13:16.277Z,10.32
2017-12-21T15:15:43.850Z,9.90
2017-12-21T15:18:12.159Z,8.80
2017-12-21T15:20:39.658Z,9.88
2017-12-21T15:23:07.153Z,9.88
2017-12-21T15:25:35.455Z,7.90
2017-12-21T15:28:02.961Z,8.93
2017-12-21T15:30:30.473Z,8.48
2017-12-21T15:32:57.977Z,9.30
2017-12-21T15:35:25.506Z,9.35
2017-12-21T15:37:53.009Z,8.25
2017-12-21T15:40:20.559Z,9.00
2017-12-21T15:42:48.069Z,7.87
2017-12-21T15:45:15.578Z,6.47
2017-12-21T15:47:43.080Z,7.05
2017-12-21T15:50:10.568Z,7.25
2017-12-21T15:52:38.069Z,8.90
2017-12-21T15:55:05.568Z,8.48
2017-12-21T15:57:33.107Z,8.90
2017-12-21T16:00:00.612Z,8.70
2017-12-21T16:02:28.156Z,9.43
2017-12-21T16:04:55.687Z,8.32
2017-12-21T16:07:23.190Z,8.75
2017-12-21T16:09:50.720Z,8.93
2017-12-21T16:12:18.239Z,9.05
2017-12-21T16:14:45.778Z,9.80
2017-12-21T16:17:13.330Z,10.07
2017-12-21T16:19:40.897Z,9.52
2017-12-21T16:22:08.400Z,7.37
2017-12-21T16:24:36.724Z,8.27
2017-12-21T16:27:04.256Z,8.68
2017-12-21T16:29:31.876Z,8.55
2017-12-21T16:31:59.404Z,9.70
2017-12-21T16:34:26.899Z,10.32
2017-12-21T16:36:55.182Z,8.38
2017-12-21T16:39:22.718Z,10.25
2017-12-21T16:41:50.228Z,8.32
2017-12-21T16:44:17.761Z,8.40
2017-12-21T16:46:46.032Z,7.57
2017-12-21T16:49:14.306Z,7.65
2017-12-21T16:51:41.819Z,8.68
2017-12-21T16:54:09.342Z,9.05
2017-12-21T16:56:36.862Z,8.40
2017-12-21T16:59:04.423Z,7.80
2017-12-21T17:01:31.936Z,9.07
2017-12-21T17:03:59.477Z,7.97
2017-12-21T17:06:27.747Z,7.80
2017-12-21T17:08:56.006Z,7.85
2017-12-21T17:11:23.515Z,8.45
2017-12-21T17:13:51.032Z,8.63
2017-12-21T17:16:18.540Z,8.70
2017-12-21T17:18:46.058Z,8.85
2017-12-21T17:21:14.347Z,8.80
2017-12-21T17:23:41.857Z,8.60
2017-12-21T17:26:09.384Z,7.30
2017-12-21T17:28:36.880Z,7.72
2017-12-21T17:31:04.421Z,7.68
2017-12-21T17:33:31.936Z,7.93
2017-12-21T17:35:59.497Z,8.00
2017-12-21T17:38:27.812Z,9.25
2017-12-21T17:40:55.381Z,8.68
2017-12-21T17:43:22.959Z,8.60
2017-12-21T17:45:50.492Z,7.73
2017-12-21T17:48:17.994Z,8.70
2017-12-21T17:50:45.508Z,9.10
2017-12-21T17:53:13.019Z,8.95
2017-12-21T17:55:40.632Z,9.98
2017-12-21T17:58:08.180Z,9.60
2017-12-21T18:00:35.784Z,9.63
2017-12-21T18:03:03.318Z,8.57
2017-12-21T18:05:30.891Z,9.32
2017-12-21T18:07:58.425Z,9.43
2017-12-21T18:10:26.155Z,9.63
2017-12-21T18:12:54.485Z,9.45
2017-12-21T18:15:21.994Z,8.82
2017-12-21T18:17:49.488Z,9.05
2017-12-21T18:20:17.004Z,9.20
2017-12-21T18:22:45.287Z,10.68
2017-12-21T18:25:13.580Z,9.85
2017-12-21T18:27:41.860Z,12.00
2017-12-21T18:30:09.416Z,10.70
2017-12-21T18:32:36.926Z,12.20
2017-12-21T18:35:04.465Z,11.73
2017-12-21T18:37:31.990Z,12.02
2017-12-21T18:39:59.509Z,11.75
2017-12-21T18:42:27.044Z,11.60
2017-12-21T18:44:54.559Z,12.48
2017-12-21T18:47:22.061Z,11.50
2017-12-21T18:49:49.577Z,13.20
2017-12-21T18:52:17.860Z,11.93
2017-12-21T18:54:46.283Z,12.20
2017-12-21T18:57:13.795Z,11.70
2017-12-21T18:59:42.116Z,12.55
2017-12-21T19:02:09.634Z,12.10
2017-12-21T19:04:37.165Z,12.98
2017-12-21T19:07:04.703Z,10.20
2017-12-21T19:09:32.274Z,10.18
2017-12-21T19:11:59.805Z,8.90
2017-12-21T19:14:27.306Z,8.70
2017-12-21T19:16:54.875Z,11.75
2017-12-21T19:19:22.464Z,9.52
2017-12-21T19:21:49.986Z,10.80
2017-12-21T19:24:17.505Z,9.73
2017-12-21T19:26:45.049Z,9.43
2017-12-21T19:29:12.574Z,10.53
2017-12-21T19:31:40.112Z,10.45
2017-12-21T19:34:07.665Z,10.80
2017-12-21T19:36:35.190Z,11.50
2017-12-21T19:39:03.268Z,11.98
2017-12-21T19:41:30.795Z,11.07
2017-12-21T19:43:58.299Z,13.95
2017-12-21T19:46:25.850Z,8.52
2017-12-21T19:48:53.384Z,11.35
2017-12-21T19:51:20.890Z,9.70
2017-12-21T19:53:48.404Z,9.40
2017-12-21T19:56:16.678Z,6.80
2017-12-21T19:58:44.991Z,9.02
2017-12-21T20:01:12.494Z,9.43
2017-12-21T20:03:40.023Z,9.52
2017-12-21T20:06:07.559Z,9.07
2017-12-21T20:08:36.081Z,9.82
2017-12-21T20:11:03.620Z,7.50
2017-12-21T20:13:31.148Z,9.55
2017-12-21T20:15:58.664Z,9.13
2017-12-21T20:18:26.168Z,8.70
2017-12-21T20:20:53.722Z,10.30
2017-12-21T20:23:22.004Z,11.45
2017-12-21T20:25:49.517Z,10.38
2017-12-21T20:28:17.065Z,12.00
2017-12-21T20:30:44.608Z,10.52
2017-12-21T20:33:12.140Z,10.82
2017-12-21T20:35:39.703Z,10.35
2017-12-21T20:38:07.311Z,12.73
2017-12-21T20:40:34.891Z,11.38
2017-12-21T20:43:02.435Z,11.68
2017-12-21T20:45:30.714Z,13.40
2017-12-21T20:47:58.264Z,13.62
2017-12-21T20:50:25.791Z,12.85
2017-12-21T20:52:53.325Z,12.65
2017-12-21T20:55:21.743Z,12.65
2017-12-21T20:57:49.258Z,13.07
2017-12-21T21:00:17.852Z,16.12
2017-12-21T21:02:46.168Z,15.65
2017-12-21T21:05:13.699Z,15.70
2017-12-21T21:07:41.337Z,16.15
2017-12-21T21:10:09.733Z,15.98
2017-12-21T21:12:37.271Z,14.10
2017-12-21T21:15:05.671Z,15.13
2017-12-21T21:17:33.210Z,13.57
2017-12-21T21:20:00.715Z,20.75
2017-12-21T21:22:28.249Z,18.30
2017-12-21T21:24:55.880Z,18.90
2017-12-21T21:27:23.379Z,21.08
2017-12-21T21:29:50.887Z,18.35
2017-12-21T21:32:18.419Z,16.75
2017-12-21T21:34:45.920Z,17.10
2017-12-21T21:37:13.501Z,16.67
2017-12-21T21:39:41.794Z,15.80
2017-12-21T21:42:10.056Z,16.00
2017-12-21T21:44:38.345Z,18.48
2017-12-21T21:47:06.707Z,18.85
2017-12-21T21:49:34.245Z,19.17
2017-12-21T21:52:01.773Z,20.45
2017-12-21T21:54:29.271Z,20.23
2017-12-21T21:56:56.801Z,21.05
2017-12-21T21:59:24.320Z,21.30
2017-12-21T22:01:52.594Z,21.67
2017-12-21T22:04:21.891Z,23.08
2017-12-21T22:06:49.428Z,20.85
2017-12-21T22:09:16.928Z,22.35
2017-12-21T22:11:44.462Z,22.73
2017-12-21T22:14:12.753Z,21.62
2017-12-21T22:16:41.613Z,20.37
2017-12-21T22:19:09.123Z,20.50
2017-12-21T22:21:36.661Z,17.60
2017-12-21T22:24:04.181Z,21.58
2017-12-21T22:26:32.455Z,21.77
2017-12-21T22:29:00.737Z,22.48
2017-12-21T22:31:28.243Z,20.10
2017-12-21T22:33:55.739Z,21.75
2017-12-21T22:36:23.305Z,23.95
2017-12-21T22:38:50.846Z,16.70
2017-12-21T22:41:18.355Z,21.02
2017-12-21T22:43:45.873Z,20.98
2017-12-21T22:46:13.414Z,21.80
2017-12-21T22:48:40.928Z,19.73
2017-12-21T22:51:08.452Z,20.92
2017-12-21T22:53:36.641Z,18.98
2017-12-21T22:56:04.197Z,20.90
2017-12-21T22:58:31.697Z,19.67
2017-12-21T23:01:00.003Z,21.00
2017-12-21T23:03:27.528Z,19.37
2017-12-21T23:05:55.055Z,19.92
2017-12-21T23:08:22.574Z,21.00
2017-12-21T23:10:50.107Z,20.83
2017-12-21T23:13:17.626Z,20.35
2017-12-21T23:15:45.201Z,18.87
2017-12-21T23:18:12.693Z,18.10
2017-12-21T23:20:40.214Z,19.00
2017-12-21T23:23:07.731Z,17.48
2017-12-21T23:25:35.267Z,17.17
2017-12-21T23:28:02.766Z,16.95
2017-12-21T23:30:30.305Z,17.45
2017-12-21T23:32:57.809Z,15.90
2017-12-21T23:35:25.311Z,16.37
2017-12-21T23:37:52.816Z,19.85
2017-12-21T23:40:20.335Z,18.12
2017-12-21T23:42:48.623Z,15.80
2017-12-21T23:45:16.163Z,19.50
2017-12-21T23:47:43.656Z,20.10
2017-12-21T23:50:11.176Z,18.42
2017-12-21T23:52:39.455Z,18.25
2017-12-21T23:55:07.772Z,15.55
2017-12-21T23:57:35.277Z,16.55
